createdAt,value
2022-11-15T00:00:53.367Z,8.50
2022-11-15T00:03:27.771Z,8.40
2022-11-15T00:05:54.709Z,8.50
2022-11-15T00:08:24.284Z,8.50
2022-11-15T00:10:58.583Z,8.50
2022-11-15T00:13:25.783Z,8.50
2022-11-15T00:15:52.827Z,8.50
2022-11-15T00:18:19.986Z,8.50
2022-11-15T00:20:46.902Z,8.50
2022-11-15T00:23:13.618Z,8.50
2022-11-15T00:25:40.395Z,8.60
2022-11-15T00:28:07.164Z,8.60
2022-11-15T00:30:34.047Z,8.60
2022-11-15T00:33:07.563Z,8.60
2022-11-15T00:35:35.314Z,8.60
2022-11-15T00:38:03.399Z,8.60
2022-11-15T00:40:30.378Z,8.60
2022-11-15T00:42:58.269Z,8.60
2022-11-15T00:45:25.453Z,8.60
2022-11-15T00:47:53.014Z,8.60
2022-11-15T00:50:20.122Z,8.60
2022-11-15T00:52:46.954Z,8.60
2022-11-15T00:55:18.478Z,8.60
2022-11-15T00:57:47.187Z,8.70
2022-11-15T01:00:14.482Z,8.70
2022-11-15T01:02:41.223Z,8.70
2022-11-15T01:05:09.043Z,8.70
2022-11-15T01:07:36.282Z,8.70
2022-11-15T01:10:03.601Z,8.70
2022-11-15T01:12:31.448Z,8.70
2022-11-15T01:14:58.270Z,8.70
2022-11-15T01:17:25.278Z,8.80
2022-11-15T01:19:52.029Z,8.80
2022-11-15T01:22:18.781Z,8.80
2022-11-15T01:24:45.458Z,8.90
2022-11-15T01:27:12.153Z,8.90
2022-11-15T01:29:38.917Z,8.90
2022-11-15T01:32:05.708Z,8.90
2022-11-15T01:34:32.356Z,8.90
2022-11-15T01:36:59.781Z,9.00
2022-11-15T01:39:27.401Z,9.00
2022-11-15T01:41:54.217Z,9.00
2022-11-15T01:44:35.829Z,9.00
2022-11-15T01:47:28.993Z,9.00
2022-11-15T01:49:58.402Z,9.10
2022-11-15T01:52:27.420Z,9.10
2022-11-15T01:55:18.068Z,9.10
2022-11-15T01:57:48.380Z,9.20
2022-11-15T02:00:15.453Z,9.20
2022-11-15T02:02:42.236Z,9.20
2022-11-15T02:05:09.121Z,9.20
2022-11-15T02:07:36.907Z,9.30
2022-11-15T02:10:12.786Z,9.30
2022-11-15T02:12:40.126Z,9.30
2022-11-15T02:15:08.434Z,9.30
2022-11-15T02:18:02.708Z,9.40
2022-11-15T02:21:03.480Z,9.40
2022-11-15T02:23:55.863Z,9.50
2022-11-15T02:26:28.184Z,9.50
2022-11-15T02:29:11.752Z,9.60
2022-11-15T02:31:52.753Z,9.60
2022-11-15T02:34:29.514Z,9.60
2022-11-15T02:37:16.249Z,9.70
2022-11-15T02:40:10.678Z,9.70
2022-11-15T02:43:08.631Z,9.80
2022-11-15T02:45:43.014Z,9.80
2022-11-15T02:48:11.100Z,9.80
2022-11-15T02:50:38.503Z,9.90
2022-11-15T02:53:05.231Z,9.90
2022-11-15T02:55:37.242Z,9.90
2022-11-15T02:58:25.014Z,10.00
2022-11-15T03:00:59.673Z,10.00
2022-11-15T03:03:47.238Z,10.00
2022-11-15T03:06:23.376Z,10.00
2022-11-15T03:08:59.350Z,10.10
2022-11-15T03:11:26.369Z,10.10
2022-11-15T03:14:30.373Z,10.10
2022-11-15T03:17:03.852Z,10.10
2022-11-15T03:19:41.320Z,10.10
2022-11-15T03:22:12.467Z,10.10
2022-11-15T03:24:39.789Z,10.10
2022-11-15T03:27:13.856Z,10.20
2022-11-15T03:29:48.115Z,10.20
2022-11-15T03:32:20.257Z,10.20
2022-11-15T03:35:24.931Z,10.30
2022-11-15T03:38:09.597Z,10.30
2022-11-15T03:40:48.937Z,10.30
2022-11-15T03:43:45.059Z,10.30
2022-11-15T03:46:25.312Z,10.40
2022-11-15T03:49:03.566Z,10.40
2022-11-15T03:51:30.964Z,10.40
2022-11-15T03:53:57.628Z,10.40
2022-11-15T03:56:24.290Z,10.50
2022-11-15T03:58:50.991Z,10.50
2022-11-15T04:01:17.780Z,10.60
2022-11-15T04:03:44.577Z,10.60
2022-11-15T04:06:11.281Z,10.60
2022-11-15T04:08:37.938Z,10.70
2022-11-15T04:11:04.675Z,10.70
2022-11-15T04:13:31.621Z,10.70
2022-11-15T04:15:58.528Z,10.80
2022-11-15T04:18:25.348Z,10.80
2022-11-15T04:21:10.713Z,10.80
2022-11-15T04:24:06.371Z,10.90
2022-11-15T04:26:33.461Z,10.90
2022-11-15T04:29:38.609Z,10.90
2022-11-15T04:32:07.193Z,11.00
2022-11-15T04:34:34.068Z,11.00
2022-11-15T04:37:12.926Z,11.00
2022-11-15T04:39:43.954Z,11.00
2022-11-15T04:42:11.207Z,11.00
2022-11-15T04:44:37.912Z,11.10
2022-11-15T04:47:04.954Z,11.10
2022-11-15T04:49:31.632Z,11.10
2022-11-15T04:51:58.442Z,11.10
2022-11-15T04:54:25.102Z,11.10
2022-11-15T04:56:51.752Z,11.10
2022-11-15T04:59:18.485Z,11.10
2022-11-15T05:01:45.482Z,11.20
2022-11-15T05:04:21.260Z,11.20
2022-11-15T05:06:49.687Z,11.20
2022-11-15T05:09:17.162Z,11.20
2022-11-15T05:11:43.983Z,11.30
2022-11-15T05:14:10.773Z,11.30
2022-11-15T05:16:38.172Z,11.30
2022-11-15T05:19:05.605Z,11.30
2022-11-15T05:21:32.672Z,11.30
2022-11-15T05:23:59.779Z,11.40
2022-11-15T05:26:27.279Z,11.40
2022-11-15T05:28:56.345Z,11.40
2022-11-15T05:31:24.029Z,11.40
2022-11-15T05:33:54.653Z,11.40
2022-11-15T05:36:43.410Z,11.40
2022-11-15T05:39:10.425Z,11.50
2022-11-15T05:41:41.311Z,11.50
2022-11-15T05:44:11.178Z,11.50
2022-11-15T05:46:40.222Z,11.50
2022-11-15T05:49:12.327Z,11.60
2022-11-15T05:51:39.984Z,11.60
2022-11-15T05:54:08.670Z,11.60
2022-11-15T05:56:35.361Z,11.60
2022-11-15T05:59:03.053Z,11.60
2022-11-15T06:01:30.535Z,11.60
2022-11-15T06:03:57.186Z,11.70
2022-11-15T06:06:23.896Z,11.70
2022-11-15T06:08:50.566Z,11.70
2022-11-15T06:11:17.223Z,11.80
2022-11-15T06:13:43.956Z,11.80
2022-11-15T06:16:10.613Z,11.80
2022-11-15T06:18:38.020Z,11.90
2022-11-15T06:21:05.260Z,11.90
2022-11-15T06:23:36.039Z,11.90
2022-11-15T06:26:03.810Z,11.90
2022-11-15T06:28:32.193Z,11.90
2022-11-15T06:31:06.435Z,12.00
2022-11-15T06:33:33.702Z,12.00
2022-11-15T06:36:18.787Z,12.00
2022-11-15T06:38:46.055Z,12.00
2022-11-15T06:41:14.620Z,12.00
2022-11-15T06:43:41.924Z,12.10
2022-11-15T06:46:09.341Z,12.10
2022-11-15T06:48:37.198Z,12.10
2022-11-15T06:51:05.184Z,12.10
2022-11-15T06:53:32.676Z,12.10
2022-11-15T06:56:01.634Z,12.10
2022-11-15T06:58:28.768Z,12.10
2022-11-15T07:01:00.232Z,12.10
2022-11-15T07:03:27.361Z,12.10
2022-11-15T07:05:55.782Z,12.10
2022-11-15T07:08:23.636Z,12.10
2022-11-15T07:10:50.599Z,12.10
2022-11-15T07:13:17.371Z,12.10
2022-11-15T07:15:44.094Z,12.10
2022-11-15T07:18:10.782Z,12.10
2022-11-15T07:20:37.482Z,12.10
2022-11-15T07:23:05.726Z,12.10
2022-11-15T07:25:32.694Z,12.10
2022-11-15T07:28:00.480Z,12.10
2022-11-15T07:30:30.103Z,12.10
2022-11-15T07:33:01.311Z,12.10
2022-11-15T07:35:30.777Z,12.10
2022-11-15T07:38:04.276Z,12.10
2022-11-15T07:40:32.826Z,12.20
2022-11-15T07:43:07.480Z,12.10
2022-11-15T07:45:37.145Z,12.20
2022-11-15T07:48:03.945Z,12.20
2022-11-15T07:50:32.103Z,12.20
2022-11-15T07:53:00.288Z,12.20
2022-11-15T07:55:30.175Z,12.20
2022-11-15T07:58:07.720Z,12.20
2022-11-15T08:00:35.549Z,12.20
2022-11-15T08:03:10.045Z,12.20
2022-11-15T08:05:38.247Z,12.20
2022-11-15T08:08:05.657Z,12.20
2022-11-15T08:10:35.263Z,12.20
2022-11-15T08:13:08.721Z,12.20
2022-11-15T08:15:36.928Z,12.20
2022-11-15T08:18:12.475Z,12.20
2022-11-15T08:20:39.272Z,12.20
2022-11-15T08:23:07.209Z,12.20
2022-11-15T08:25:35.318Z,12.20
2022-11-15T08:28:05.024Z,12.20
2022-11-15T08:30:35.496Z,12.20
2022-11-15T08:33:02.204Z,12.30
2022-11-15T08:35:30.238Z,12.30
2022-11-15T08:37:59.763Z,12.30
2022-11-15T08:40:29.220Z,12.30
2022-11-15T08:42:56.000Z,12.30
2022-11-15T08:45:22.782Z,12.30
2022-11-15T08:47:53.983Z,12.30
2022-11-15T08:50:21.230Z,12.30
2022-11-15T08:52:49.234Z,12.40
2022-11-15T08:55:17.734Z,12.40
2022-11-15T08:57:45.899Z,12.40
2022-11-15T09:00:14.270Z,12.40
2022-11-15T09:02:41.518Z,12.50
2022-11-15T09:05:08.830Z,12.50
2022-11-15T09:07:35.668Z,12.50
2022-11-15T09:10:02.433Z,12.60
2022-11-15T09:12:29.437Z,12.60
2022-11-15T09:14:56.177Z,12.60
2022-11-15T09:20:10.289Z,12.70
2022-11-15T09:22:37.515Z,12.70
2022-11-15T09:25:08.544Z,12.70
2022-11-15T09:27:36.652Z,12.70
2022-11-15T09:30:03.602Z,12.80
2022-11-15T09:32:35.031Z,12.80
2022-11-15T09:35:05.925Z,12.80
2022-11-15T09:37:33.561Z,12.80
2022-11-15T09:40:00.263Z,12.80
2022-11-15T09:42:46.594Z,12.80
2022-11-15T09:45:29.697Z,12.80
2022-11-15T09:48:20.731Z,12.80
2022-11-15T09:50:50.767Z,12.80
2022-11-15T09:56:27.600Z,12.90
2022-11-15T09:59:15.460Z,12.80
2022-11-15T10:01:44.939Z,12.80
2022-11-15T10:04:12.205Z,12.80
2022-11-15T10:06:47.794Z,12.80
2022-11-15T10:09:24.074Z,12.90
2022-11-15T10:11:51.254Z,12.90
2022-11-15T10:14:23.502Z,12.90
2022-11-15T10:17:07.847Z,13.00
2022-11-15T10:20:11.993Z,13.00
2022-11-15T10:23:06.173Z,13.00
2022-11-15T10:25:36.509Z,13.00
2022-11-15T10:28:11.014Z,13.00
2022-11-15T10:30:41.817Z,13.00
2022-11-15T10:33:32.264Z,13.00
2022-11-15T10:36:18.602Z,13.00
2022-11-15T10:38:56.182Z,13.00
2022-11-15T10:41:32.993Z,13.00
2022-11-15T10:44:18.255Z,13.00
2022-11-15T10:46:56.636Z,13.00
2022-11-15T10:49:29.627Z,13.10
2022-11-15T10:52:00.299Z,13.10
2022-11-15T10:54:26.956Z,13.10
2022-11-15T10:56:56.977Z,13.10
2022-11-15T10:59:37.754Z,13.10
2022-11-15T11:02:38.849Z,13.20
2022-11-15T11:05:45.720Z,13.20
2022-11-15T11:08:15.493Z,13.10
2022-11-15T11:11:00.149Z,13.10
2022-11-15T11:13:34.786Z,13.20
2022-11-15T11:16:36.299Z,13.20
2022-11-15T11:19:38.872Z,13.20
2022-11-15T11:22:18.727Z,13.30
2022-11-15T11:24:55.927Z,13.20
2022-11-15T11:27:44.231Z,13.30
2022-11-15T11:30:22.800Z,13.30
2022-11-15T11:32:55.241Z,13.40
2022-11-15T11:35:31.770Z,13.40
2022-11-15T11:38:30.051Z,13.40
2022-11-15T11:41:08.439Z,13.40
2022-11-15T11:44:03.259Z,13.40
2022-11-15T11:46:51.469Z,13.40
2022-11-15T11:49:36.982Z,13.40
2022-11-15T11:52:24.206Z,13.40
2022-11-15T11:55:17.341Z,13.40
2022-11-15T11:58:13.149Z,13.50
2022-11-15T12:00:46.981Z,13.50
2022-11-15T12:03:25.266Z,13.50
2022-11-15T12:05:56.716Z,13.60
2022-11-15T12:08:45.235Z,13.60
2022-11-15T12:11:21.143Z,13.60
2022-11-15T12:13:52.063Z,13.60
2022-11-15T12:16:29.107Z,13.60
2022-11-15T12:19:00.017Z,13.70
2022-11-15T12:21:49.245Z,13.70
2022-11-15T12:24:30.886Z,13.70
2022-11-15T12:27:26.399Z,13.70
2022-11-15T12:29:58.716Z,13.80
2022-11-15T12:32:49.803Z,13.80
2022-11-15T12:35:38.053Z,13.80
2022-11-15T12:38:06.083Z,13.80
2022-11-15T12:40:59.874Z,13.80
2022-11-15T12:43:43.628Z,13.80
2022-11-15T12:46:31.518Z,13.80
2022-11-15T12:49:11.161Z,13.80
2022-11-15T12:51:44.031Z,13.80
2022-11-15T12:54:22.649Z,13.90
2022-11-15T12:57:04.327Z,13.90
2022-11-15T12:59:54.260Z,13.90
2022-11-15T13:02:32.261Z,13.90
2022-11-15T13:05:18.612Z,13.90
2022-11-15T13:07:48.283Z,13.90
2022-11-15T13:10:14.919Z,13.90
2022-11-15T13:12:47.585Z,13.90
2022-11-15T13:15:14.369Z,13.90
2022-11-15T13:17:45.996Z,13.90
2022-11-15T13:20:15.187Z,13.90
2022-11-15T13:22:55.776Z,13.90
2022-11-15T13:25:47.222Z,13.90
2022-11-15T13:28:17.009Z,13.90
2022-11-15T13:30:53.764Z,13.80
2022-11-15T13:33:37.448Z,13.80
2022-11-15T13:36:14.396Z,13.80
2022-11-15T13:38:42.328Z,13.80
2022-11-15T13:41:22.040Z,13.70
2022-11-15T13:43:50.710Z,13.70
2022-11-15T13:46:29.329Z,13.70
2022-11-15T13:49:02.010Z,13.70
2022-11-15T13:51:37.829Z,13.70
2022-11-15T13:54:14.318Z,13.70
2022-11-15T13:57:03.672Z,13.60
2022-11-15T13:59:33.567Z,13.60
2022-11-15T14:02:11.944Z,13.60
2022-11-15T14:04:46.101Z,13.60
2022-11-15T14:07:22.630Z,13.50
2022-11-15T14:09:49.866Z,13.50
2022-11-15T14:12:36.508Z,13.50
2022-11-15T14:15:31.412Z,13.50
2022-11-15T14:17:58.539Z,13.50
2022-11-15T14:20:31.839Z,13.50
2022-11-15T14:23:01.534Z,13.50
2022-11-15T14:25:37.289Z,13.40
2022-11-15T14:28:25.097Z,13.40
2022-11-15T14:30:58.153Z,13.50
2022-11-15T14:33:29.357Z,13.40
2022-11-15T14:35:58.138Z,13.40
2022-11-15T14:38:26.371Z,13.40
2022-11-15T14:40:54.617Z,13.40
2022-11-15T14:43:21.425Z,13.40
2022-11-15T14:45:48.186Z,13.40
2022-11-15T14:48:15.084Z,13.40
2022-11-15T14:50:41.806Z,13.30
2022-11-15T14:53:14.324Z,13.30
2022-11-15T14:55:41.089Z,13.30
2022-11-15T14:58:11.499Z,13.30
2022-11-15T15:00:38.731Z,13.30
2022-11-15T15:03:06.189Z,13.30
2022-11-15T15:05:34.579Z,13.20
2022-11-15T15:08:01.854Z,13.20
2022-11-15T15:10:40.083Z,13.20
2022-11-15T15:13:22.062Z,13.20
2022-11-15T15:15:50.189Z,13.20
2022-11-15T15:18:17.580Z,13.20
2022-11-15T15:20:46.562Z,13.20
2022-11-15T15:23:21.184Z,13.20
2022-11-15T15:25:49.827Z,13.20
2022-11-15T15:28:16.934Z,13.20
2022-11-15T15:30:43.853Z,13.10
2022-11-15T15:33:10.548Z,13.10
2022-11-15T15:35:37.497Z,13.10
2022-11-15T15:38:05.011Z,13.20
2022-11-15T15:40:33.812Z,13.10
2022-11-15T15:43:01.005Z,13.10
2022-11-15T15:45:30.805Z,13.10
2022-11-15T15:47:57.653Z,13.10
2022-11-15T15:50:27.399Z,13.10
2022-11-15T15:52:56.287Z,13.10
2022-11-15T15:55:23.881Z,13.10
2022-11-15T15:57:51.313Z,13.10
2022-11-15T16:00:19.238Z,13.10
2022-11-15T16:02:46.466Z,13.10
2022-11-15T16:05:13.980Z,13.10
2022-11-15T16:07:41.079Z,13.10
2022-11-15T16:10:23.610Z,13.10
2022-11-15T16:12:50.651Z,13.10
2022-11-15T16:15:17.951Z,13.10
2022-11-15T16:17:58.609Z,13.10
2022-11-15T16:20:35.639Z,13.10
2022-11-15T16:23:08.809Z,13.10
2022-11-15T16:25:41.484Z,13.10
2022-11-15T16:28:21.901Z,13.10
2022-11-15T16:30:52.415Z,13.10
2022-11-15T16:33:23.585Z,13.10
2022-11-15T16:35:50.380Z,13.10
2022-11-15T16:38:18.277Z,13.10
2022-11-15T16:40:45.037Z,13.10
2022-11-15T16:43:12.156Z,13.10
2022-11-15T16:45:38.930Z,13.10
2022-11-15T16:48:05.763Z,13.10
2022-11-15T16:50:41.276Z,13.10
2022-11-15T16:53:08.017Z,13.10
2022-11-15T16:55:34.881Z,13.10
2022-11-15T16:58:02.410Z,13.10
2022-11-15T17:00:29.226Z,13.10
2022-11-15T17:02:56.238Z,13.10
2022-11-15T17:05:24.366Z,13.10
2022-11-15T17:07:54.966Z,13.10
2022-11-15T17:10:23.525Z,13.10
2022-11-15T17:12:51.373Z,13.10
2022-11-15T17:15:18.800Z,13.00
2022-11-15T17:17:50.745Z,13.00
2022-11-15T17:20:18.896Z,13.00
2022-11-15T17:22:47.254Z,13.00
2022-11-15T17:25:14.442Z,13.00
2022-11-15T17:27:41.161Z,13.00
2022-11-15T17:30:09.948Z,12.90
2022-11-15T17:32:37.486Z,12.90
2022-11-15T17:35:12.034Z,12.90
2022-11-15T17:37:41.648Z,12.80
2022-11-15T17:40:08.897Z,12.80
2022-11-15T17:42:35.648Z,12.70
2022-11-15T17:45:08.047Z,12.70
2022-11-15T17:47:36.853Z,12.70
2022-11-15T17:50:04.295Z,12.70
2022-11-15T17:52:31.083Z,12.60
2022-11-15T17:54:57.811Z,12.60
2022-11-15T17:57:24.487Z,12.60
2022-11-15T17:59:51.157Z,12.60
2022-11-15T18:02:17.906Z,12.60
2022-11-15T18:04:44.586Z,12.50
2022-11-15T18:07:12.344Z,12.50
2022-11-15T18:09:42.257Z,12.50
2022-11-15T18:12:09.686Z,12.50
2022-11-15T18:14:36.595Z,12.50
2022-11-15T18:17:03.486Z,12.50
2022-11-15T18:19:30.183Z,12.50
2022-11-15T18:21:56.968Z,12.40
2022-11-15T18:24:31.363Z,12.40
2022-11-15T18:26:59.474Z,12.40
2022-11-15T18:29:26.444Z,12.40
2022-11-15T18:31:56.916Z,12.40
2022-11-15T18:34:25.518Z,12.40
2022-11-15T18:36:53.032Z,12.40
2022-11-15T18:39:20.333Z,12.40
2022-11-15T18:41:47.805Z,12.30
2022-11-15T18:44:15.149Z,12.40
2022-11-15T18:46:42.361Z,12.40
2022-11-15T18:49:10.450Z,12.40
2022-11-15T18:51:41.879Z,12.40
2022-11-15T18:54:10.995Z,12.40
2022-11-15T18:56:38.361Z,12.40
2022-11-15T18:59:06.198Z,12.40
2022-11-15T19:01:35.411Z,12.40
2022-11-15T19:04:08.418Z,12.40
2022-11-15T19:06:38.900Z,12.40
2022-11-15T19:09:06.046Z,12.40
2022-11-15T19:11:35.820Z,12.40
2022-11-15T19:14:10.177Z,12.40
2022-11-15T19:16:39.467Z,12.40
2022-11-15T19:19:10.386Z,12.40
2022-11-15T19:21:37.147Z,12.50
2022-11-15T19:24:04.088Z,12.40
2022-11-15T19:26:30.835Z,12.50
2022-11-15T19:28:59.669Z,12.50
2022-11-15T19:31:28.226Z,12.50
2022-11-15T19:33:55.668Z,12.50
2022-11-15T19:36:26.829Z,12.50
2022-11-15T19:38:55.143Z,12.50
2022-11-15T19:41:23.789Z,12.50
2022-11-15T19:43:51.685Z,12.50
2022-11-15T19:46:20.632Z,12.50
2022-11-15T19:48:47.878Z,12.60
2022-11-15T19:51:21.806Z,12.60
2022-11-15T19:53:50.012Z,12.50
2022-11-15T19:56:18.459Z,12.50
2022-11-15T19:58:45.779Z,12.60
2022-11-15T20:01:21.241Z,12.60
2022-11-15T20:03:48.992Z,12.60
2022-11-15T20:06:17.990Z,12.60
2022-11-15T20:08:46.046Z,12.60
2022-11-15T20:11:13.800Z,12.70
2022-11-15T20:13:41.247Z,12.70
2022-11-15T20:16:08.150Z,12.70
2022-11-15T20:18:35.846Z,12.70
2022-11-15T20:21:06.228Z,12.70
2022-11-15T20:23:33.309Z,12.70
2022-11-15T20:26:00.055Z,12.70
2022-11-15T20:28:28.568Z,12.80
2022-11-15T20:30:57.784Z,12.70
2022-11-15T20:33:25.299Z,12.70
2022-11-15T20:35:52.619Z,12.70
2022-11-15T20:38:21.134Z,12.80
2022-11-15T20:40:57.414Z,12.80
2022-11-15T20:43:25.883Z,12.80
2022-11-15T20:45:52.591Z,12.80
2022-11-15T20:48:19.288Z,12.80
2022-11-15T20:50:47.101Z,12.80
2022-11-15T20:53:16.406Z,12.80
2022-11-15T20:55:47.863Z,12.80
2022-11-15T20:58:15.606Z,12.80
2022-11-15T21:00:44.671Z,12.80
2022-11-15T21:03:12.555Z,12.90
2022-11-15T21:05:41.141Z,12.90
2022-11-15T21:08:08.859Z,12.90
2022-11-15T21:10:54.199Z,12.90
2022-11-15T21:13:21.679Z,12.90
2022-11-15T21:15:48.670Z,12.90
2022-11-15T21:18:15.642Z,12.90
2022-11-15T21:20:42.908Z,12.90
2022-11-15T21:23:09.937Z,12.90
2022-11-15T21:25:36.762Z,13.00
2022-11-15T21:28:03.629Z,12.90
2022-11-15T21:30:30.509Z,13.00
2022-11-15T21:32:57.216Z,13.00
2022-11-15T21:35:24.054Z,13.00
2022-11-15T21:37:56.371Z,13.00
2022-11-15T21:40:24.022Z,13.00
2022-11-15T21:42:50.891Z,13.00
2022-11-15T21:45:17.614Z,13.00
2022-11-15T21:47:46.380Z,13.00
2022-11-15T21:50:13.891Z,13.00
2022-11-15T21:52:41.008Z,13.00
2022-11-15T21:55:08.886Z,13.10
2022-11-15T21:57:35.599Z,13.10
2022-11-15T22:00:21.117Z,13.10
2022-11-15T22:02:47.803Z,13.10
2022-11-15T22:05:14.762Z,13.10
2022-11-15T22:07:41.424Z,13.10
2022-11-15T22:10:08.494Z,13.10
2022-11-15T22:12:35.161Z,13.10
2022-11-15T22:15:01.879Z,13.10
2022-11-15T22:17:48.521Z,13.10
2022-11-15T22:20:44.688Z,13.10
2022-11-15T22:23:02.504Z,13.10
2022-11-15T22:25:29.927Z,13.10
2022-11-15T22:27:57.010Z,13.10
2022-11-15T22:30:24.586Z,13.10
2022-11-15T22:32:51.279Z,13.10
2022-11-15T22:35:17.949Z,13.10
2022-11-15T22:37:44.616Z,13.10
2022-11-15T22:40:11.434Z,13.10
2022-11-15T22:42:38.123Z,13.10
2022-11-15T22:45:05.205Z,13.10
2022-11-15T22:47:31.933Z,13.10
2022-11-15T22:49:58.616Z,13.10
2022-11-15T22:52:25.268Z,13.20
2022-11-15T22:54:51.984Z,13.20
2022-11-15T22:57:18.649Z,13.20
2022-11-15T22:59:45.883Z,13.20
2022-11-15T23:02:12.544Z,13.20
2022-11-15T23:04:39.326Z,13.20
2022-11-15T23:07:06.158Z,13.20
2022-11-15T23:09:32.912Z,13.20
2022-11-15T23:12:18.122Z,13.20
2022-11-15T23:14:44.840Z,13.20
2022-11-15T23:17:11.509Z,13.10
2022-11-15T23:19:38.196Z,13.20
2022-11-15T23:22:23.302Z,13.10
2022-11-15T23:24:51.648Z,13.20
2022-11-15T23:27:20.052Z,13.10
2022-11-15T23:30:05.918Z,13.10
2022-11-15T23:32:51.166Z,13.20
2022-11-15T23:35:17.861Z,13.10
2022-11-15T23:37:44.546Z,13.20
2022-11-15T23:40:12.061Z,13.20
2022-11-15T23:42:38.770Z,13.20
2022-11-15T23:45:06.339Z,13.20
2022-11-15T23:47:33.091Z,13.20
2022-11-15T23:49:59.764Z,13.20
2022-11-15T23:52:26.497Z,13.10
2022-11-15T23:54:53.226Z,13.20
2022-11-15T23:57:20.040Z,13.10
2022-11-15T23:59:47.671Z,13.10
